sensor_id;sensor_type;location;lat;lon;timestamp;temperature;humidity
59651;DHT22;45954;49.768;8.636;2022-10-16T00:01:29;17.20;99.90
59651;DHT22;45954;49.768;8.636;2022-10-16T00:03:57;17.10;99.90
59651;DHT22;45954;49.768;8.636;2022-10-16T00:06:25;17.10;99.90
59651;DHT22;45954;49.768;8.636;2022-10-16T00:08:51;17.10;99.90
59651;DHT22;45954;49.768;8.636;2022-10-16T00:11:27;17.10;99.90
59651;DHT22;45954;49.768;8.636;2022-10-16T00:13:58;17.20;99.90
59651;DHT22;45954;49.768;8.636;2022-10-16T00:16:26;17.10;99.90
59651;DHT22;45954;49.768;8.636;2022-10-16T00:18:53;16.90;99.90
59651;DHT22;45954;49.768;8.636;2022-10-16T00:21:25;16.90;99.90
59651;DHT22;45954;49.768;8.636;2022-10-16T00:23:59;16.90;99.90
59651;DHT22;45954;49.768;8.636;2022-10-16T00:26:28;16.90;99.90
59651;DHT22;45954;49.768;8.636;2022-10-16T00:28:55;16.80;99.90
59651;DHT22;45954;49.768;8.636;2022-10-16T00:31:22;16.80;99.90
59651;DHT22;45954;49.768;8.636;2022-10-16T00:33:50;16.90;99.90
59651;DHT22;45954;49.768;8.636;2022-10-16T00:36:19;17.00;99.90
59651;DHT22;45954;49.768;8.636;2022-10-16T00:38:49;16.90;99.90
59651;DHT22;45954;49.768;8.636;2022-10-16T00:41:18;16.70;99.90
59651;DHT22;45954;49.768;8.636;2022-10-16T00:46:32;16.80;99.90
59651;DHT22;45954;49.768;8.636;2022-10-16T00:49:16;16.80;99.90
59651;DHT22;45954;49.768;8.636;2022-10-16T00:51:52;16.70;99.90
59651;DHT22;45954;49.768;8.636;2022-10-16T00:54:29;16.60;99.90
59651;DHT22;45954;49.768;8.636;2022-10-16T00:56:59;16.80;99.90
59651;DHT22;45954;49.768;8.636;2022-10-16T00:59:30;16.80;99.90
59651;DHT22;45954;49.768;8.636;2022-10-16T01:02:02;16.80;99.90
59651;DHT22;45954;49.768;8.636;2022-10-16T01:04:35;17.00;99.90
59651;DHT22;45954;49.768;8.636;2022-10-16T01:10:06;17.00;99.90
59651;DHT22;45954;49.768;8.636;2022-10-16T01:13:46;17.10;99.90
59651;DHT22;45954;49.768;8.636;2022-10-16T01:16:04;17.30;99.90
59651;DHT22;45954;49.768;8.636;2022-10-16T01:18:39;17.20;99.90
59651;DHT22;45954;49.768;8.636;2022-10-16T01:21:38;17.10;99.90
59651;DHT22;45954;49.768;8.636;2022-10-16T01:29:57;17.30;99.90
59651;DHT22;45954;49.768;8.636;2022-10-16T01:33:01;17.20;99.90
59651;DHT22;45954;49.768;8.636;2022-10-16T01:35:52;17.10;99.90
59651;DHT22;45954;49.768;8.636;2022-10-16T01:38:33;17.20;99.90
59651;DHT22;45954;49.768;8.636;2022-10-16T01:41:08;17.30;99.90
59651;DHT22;45954;49.768;8.636;2022-10-16T01:43:45;17.40;99.90
59651;DHT22;45954;49.768;8.636;2022-10-16T01:46:18;17.40;99.90
59651;DHT22;45954;49.768;8.636;2022-10-16T01:48:45;17.40;99.90
59651;DHT22;45954;49.768;8.636;2022-10-16T01:51:15;17.30;99.90
59651;DHT22;45954;49.768;8.636;2022-10-16T01:53:48;17.20;99.90
59651;DHT22;45954;49.768;8.636;2022-10-16T01:56:18;17.20;99.90
59651;DHT22;45954;49.768;8.636;2022-10-16T01:59:20;17.10;99.90
59651;DHT22;45954;49.768;8.636;2022-10-16T02:01:54;17.10;99.90
59651;DHT22;45954;49.768;8.636;2022-10-16T02:04:34;17.20;99.90
59651;DHT22;45954;49.768;8.636;2022-10-16T02:07:05;17.30;99.90
59651;DHT22;45954;49.768;8.636;2022-10-16T02:09:36;17.30;99.90
59651;DHT22;45954;49.768;8.636;2022-10-16T02:12:10;17.30;99.90
59651;DHT22;45954;49.768;8.636;2022-10-16T02:14:40;17.30;99.90
59651;DHT22;45954;49.768;8.636;2022-10-16T02:17:15;17.20;99.90
59651;DHT22;45954;49.768;8.636;2022-10-16T02:19:44;17.20;99.90
59651;DHT22;45954;49.768;8.636;2022-10-16T02:22:43;17.20;99.90
59651;DHT22;45954;49.768;8.636;2022-10-16T02:31:22;17.20;99.90
59651;DHT22;45954;49.768;8.636;2022-10-16T02:33:53;17.10;99.90
59651;DHT22;45954;49.768;8.636;2022-10-16T02:36:21;17.00;99.90
59651;DHT22;45954;49.768;8.636;2022-10-16T02:38:47;16.90;99.90
59651;DHT22;45954;49.768;8.636;2022-10-16T02:41:15;17.00;99.90
59651;DHT22;45954;49.768;8.636;2022-10-16T02:43:40;17.00;99.90
59651;DHT22;45954;49.768;8.636;2022-10-16T02:46:06;17.00;99.90
59651;DHT22;45954;49.768;8.636;2022-10-16T02:48:32;17.10;99.90
59651;DHT22;45954;49.768;8.636;2022-10-16T02:50:58;17.10;99.90
59651;DHT22;45954;49.768;8.636;2022-10-16T02:53:24;17.20;99.90
59651;DHT22;45954;49.768;8.636;2022-10-16T02:55:50;17.20;99.90
59651;DHT22;45954;49.768;8.636;2022-10-16T02:58:15;17.20;99.90
59651;DHT22;45954;49.768;8.636;2022-10-16T03:00:41;17.20;99.90
59651;DHT22;45954;49.768;8.636;2022-10-16T03:03:07;17.10;99.90
59651;DHT22;45954;49.768;8.636;2022-10-16T03:05:33;17.10;99.90
59651;DHT22;45954;49.768;8.636;2022-10-16T03:07:59;17.10;99.90
59651;DHT22;45954;49.768;8.636;2022-10-16T03:10:26;17.00;99.90
59651;DHT22;45954;49.768;8.636;2022-10-16T03:12:52;17.10;99.90
59651;DHT22;45954;49.768;8.636;2022-10-16T03:15:18;17.30;99.90
59651;DHT22;45954;49.768;8.636;2022-10-16T03:17:44;17.20;99.90
59651;DHT22;45954;49.768;8.636;2022-10-16T03:20:10;17.10;99.90
59651;DHT22;45954;49.768;8.636;2022-10-16T03:22:36;17.10;99.90
59651;DHT22;45954;49.768;8.636;2022-10-16T03:25:02;17.00;99.90
59651;DHT22;45954;49.768;8.636;2022-10-16T03:27:28;17.00;99.90
59651;DHT22;45954;49.768;8.636;2022-10-16T03:29:54;17.00;99.90
59651;DHT22;45954;49.768;8.636;2022-10-16T03:32:20;17.00;99.90
59651;DHT22;45954;49.768;8.636;2022-10-16T03:34:47;16.90;99.90
59651;DHT22;45954;49.768;8.636;2022-10-16T03:37:13;16.90;99.90
59651;DHT22;45954;49.768;8.636;2022-10-16T03:39:38;17.00;99.90
59651;DHT22;45954;49.768;8.636;2022-10-16T03:42:04;17.20;99.90
59651;DHT22;45954;49.768;8.636;2022-10-16T03:44:30;17.20;99.90
59651;DHT22;45954;49.768;8.636;2022-10-16T03:46:56;17.10;99.90
59651;DHT22;45954;49.768;8.636;2022-10-16T03:49:22;17.10;99.90
59651;DHT22;45954;49.768;8.636;2022-10-16T03:51:48;17.10;99.90
59651;DHT22;45954;49.768;8.636;2022-10-16T03:54:13;17.00;99.90
59651;DHT22;45954;49.768;8.636;2022-10-16T03:56:39;17.20;99.90
59651;DHT22;45954;49.768;8.636;2022-10-16T03:59:05;17.20;99.90
59651;DHT22;45954;49.768;8.636;2022-10-16T04:01:31;17.20;99.90
59651;DHT22;45954;49.768;8.636;2022-10-16T04:03:57;17.30;99.90
59651;DHT22;45954;49.768;8.636;2022-10-16T04:06:22;17.40;99.90
59651;DHT22;45954;49.768;8.636;2022-10-16T04:08:48;17.40;99.90
59651;DHT22;45954;49.768;8.636;2022-10-16T04:11:14;17.20;99.90
59651;DHT22;45954;49.768;8.636;2022-10-16T04:13:43;17.20;99.90
59651;DHT22;45954;49.768;8.636;2022-10-16T04:16:09;17.20;99.90
59651;DHT22;45954;49.768;8.636;2022-10-16T04:18:35;17.00;99.90
59651;DHT22;45954;49.768;8.636;2022-10-16T04:21:05;17.20;99.90
59651;DHT22;45954;49.768;8.636;2022-10-16T04:23:32;17.20;99.90
59651;DHT22;45954;49.768;8.636;2022-10-16T04:25:58;17.20;99.90
59651;DHT22;45954;49.768;8.636;2022-10-16T04:28:25;17.10;99.90
59651;DHT22;45954;49.768;8.636;2022-10-16T04:30:52;17.00;99.90
59651;DHT22;45954;49.768;8.636;2022-10-16T04:33:18;16.90;99.90
59651;DHT22;45954;49.768;8.636;2022-10-16T04:35:44;16.90;99.90
59651;DHT22;45954;49.768;8.636;2022-10-16T04:38:09;17.00;99.90
59651;DHT22;45954;49.768;8.636;2022-10-16T04:40:35;17.10;99.90
59651;DHT22;45954;49.768;8.636;2022-10-16T04:43:05;17.10;99.90
59651;DHT22;45954;49.768;8.636;2022-10-16T04:45:31;17.00;99.90
59651;DHT22;45954;49.768;8.636;2022-10-16T04:48:00;17.10;99.90
59651;DHT22;45954;49.768;8.636;2022-10-16T04:50:26;17.30;99.90
59651;DHT22;45954;49.768;8.636;2022-10-16T04:52:52;17.20;99.90
59651;DHT22;45954;49.768;8.636;2022-10-16T04:55:18;17.30;99.90
59651;DHT22;45954;49.768;8.636;2022-10-16T04:57:44;17.40;99.90
59651;DHT22;45954;49.768;8.636;2022-10-16T05:00:10;17.50;99.90
59651;DHT22;45954;49.768;8.636;2022-10-16T05:02:36;17.50;99.90
59651;DHT22;45954;49.768;8.636;2022-10-16T05:05:02;17.30;99.90
59651;DHT22;45954;49.768;8.636;2022-10-16T05:07:28;17.20;99.90
59651;DHT22;45954;49.768;8.636;2022-10-16T05:09:54;17.20;99.90
59651;DHT22;45954;49.768;8.636;2022-10-16T05:12:20;17.10;99.90
59651;DHT22;45954;49.768;8.636;2022-10-16T05:14:46;17.10;99.90
59651;DHT22;45954;49.768;8.636;2022-10-16T05:17:12;17.20;99.90
59651;DHT22;45954;49.768;8.636;2022-10-16T05:19:38;17.10;99.90
59651;DHT22;45954;49.768;8.636;2022-10-16T05:22:03;17.10;99.90
59651;DHT22;45954;49.768;8.636;2022-10-16T05:24:29;17.20;99.90
59651;DHT22;45954;49.768;8.636;2022-10-16T05:26:55;17.20;99.90
59651;DHT22;45954;49.768;8.636;2022-10-16T05:29:21;17.10;99.90
59651;DHT22;45954;49.768;8.636;2022-10-16T05:31:53;16.90;99.90
59651;DHT22;45954;49.768;8.636;2022-10-16T05:34:20;16.80;99.90
59651;DHT22;45954;49.768;8.636;2022-10-16T05:36:46;16.80;99.90
59651;DHT22;45954;49.768;8.636;2022-10-16T05:39:13;16.80;99.90
59651;DHT22;45954;49.768;8.636;2022-10-16T05:41:39;16.80;99.90
59651;DHT22;45954;49.768;8.636;2022-10-16T05:44:05;16.80;99.90
59651;DHT22;45954;49.768;8.636;2022-10-16T05:46:32;16.80;99.90
59651;DHT22;45954;49.768;8.636;2022-10-16T05:48:58;16.70;99.90
59651;DHT22;45954;49.768;8.636;2022-10-16T05:51:24;16.80;99.90
59651;DHT22;45954;49.768;8.636;2022-10-16T05:53:50;16.90;99.90
59651;DHT22;45954;49.768;8.636;2022-10-16T05:56:17;16.90;99.90
59651;DHT22;45954;49.768;8.636;2022-10-16T05:58:43;17.00;99.90
59651;DHT22;45954;49.768;8.636;2022-10-16T06:01:14;17.00;99.90
59651;DHT22;45954;49.768;8.636;2022-10-16T06:03:41;16.80;99.90
59651;DHT22;45954;49.768;8.636;2022-10-16T06:06:15;16.70;99.90
59651;DHT22;45954;49.768;8.636;2022-10-16T06:08:44;16.70;99.90
59651;DHT22;45954;49.768;8.636;2022-10-16T06:11:14;16.80;99.90
59651;DHT22;45954;49.768;8.636;2022-10-16T06:13:41;16.80;99.90
59651;DHT22;45954;49.768;8.636;2022-10-16T06:16:09;16.70;99.90
59651;DHT22;45954;49.768;8.636;2022-10-16T06:18:36;16.70;99.90
59651;DHT22;45954;49.768;8.636;2022-10-16T06:21:08;16.70;99.90
59651;DHT22;45954;49.768;8.636;2022-10-16T06:23:35;16.70;99.90
59651;DHT22;45954;49.768;8.636;2022-10-16T06:26:06;16.80;99.90
59651;DHT22;45954;49.768;8.636;2022-10-16T06:28:37;17.10;99.90
59651;DHT22;45954;49.768;8.636;2022-10-16T06:31:05;17.30;99.90
59651;DHT22;45954;49.768;8.636;2022-10-16T06:33:32;17.40;99.90
59651;DHT22;45954;49.768;8.636;2022-10-16T06:36:03;17.30;99.90
59651;DHT22;45954;49.768;8.636;2022-10-16T06:38:31;17.20;99.90
59651;DHT22;45954;49.768;8.636;2022-10-16T06:40:58;17.00;99.90
59651;DHT22;45954;49.768;8.636;2022-10-16T06:43:24;17.00;99.90
59651;DHT22;45954;49.768;8.636;2022-10-16T06:45:55;16.90;99.90
59651;DHT22;45954;49.768;8.636;2022-10-16T06:48:23;17.10;99.90
59651;DHT22;45954;49.768;8.636;2022-10-16T06:51:05;17.00;99.90
59651;DHT22;45954;49.768;8.636;2022-10-16T06:53:37;17.10;99.90
59651;DHT22;45954;49.768;8.636;2022-10-16T06:56:14;16.90;99.90
59651;DHT22;45954;49.768;8.636;2022-10-16T06:58:42;17.20;99.90
59651;DHT22;45954;49.768;8.636;2022-10-16T07:01:09;17.20;99.90
59651;DHT22;45954;49.768;8.636;2022-10-16T07:03:41;17.20;99.90
59651;DHT22;45954;49.768;8.636;2022-10-16T07:06:10;17.20;99.90
59651;DHT22;45954;49.768;8.636;2022-10-16T07:08:39;17.30;99.90
59651;DHT22;45954;49.768;8.636;2022-10-16T07:11:09;17.40;99.90
59651;DHT22;45954;49.768;8.636;2022-10-16T07:13:38;17.60;99.90
59651;DHT22;45954;49.768;8.636;2022-10-16T07:16:12;17.70;99.90
59651;DHT22;45954;49.768;8.636;2022-10-16T07:18:43;17.90;99.90
59651;DHT22;45954;49.768;8.636;2022-10-16T07:23:41;17.90;99.90
59651;DHT22;45954;49.768;8.636;2022-10-16T07:26:09;17.90;99.90
59651;DHT22;45954;49.768;8.636;2022-10-16T07:28:35;17.80;99.90
59651;DHT22;45954;49.768;8.636;2022-10-16T07:31:07;17.90;99.90
59651;DHT22;45954;49.768;8.636;2022-10-16T07:33:37;17.70;99.90
59651;DHT22;45954;49.768;8.636;2022-10-16T07:36:04;17.80;99.90
59651;DHT22;45954;49.768;8.636;2022-10-16T07:38:30;17.80;99.90
59651;DHT22;45954;49.768;8.636;2022-10-16T07:41:01;17.80;99.90
59651;DHT22;45954;49.768;8.636;2022-10-16T07:43:29;17.80;99.90
59651;DHT22;45954;49.768;8.636;2022-10-16T07:45:55;17.90;99.90
59651;DHT22;45954;49.768;8.636;2022-10-16T07:48:23;18.00;99.90
59651;DHT22;45954;49.768;8.636;2022-10-16T07:50:50;18.10;99.90
59651;DHT22;45954;49.768;8.636;2022-10-16T07:53:16;18.10;99.90
59651;DHT22;45954;49.768;8.636;2022-10-16T07:55:42;18.10;99.90
59651;DHT22;45954;49.768;8.636;2022-10-16T07:58:08;18.20;99.90
59651;DHT22;45954;49.768;8.636;2022-10-16T08:00:36;18.30;99.90
59651;DHT22;45954;49.768;8.636;2022-10-16T08:03:03;18.30;99.90
59651;DHT22;45954;49.768;8.636;2022-10-16T08:05:31;18.30;99.90
59651;DHT22;45954;49.768;8.636;2022-10-16T08:07:59;18.20;99.90
59651;DHT22;45954;49.768;8.636;2022-10-16T08:10:26;18.20;99.90
59651;DHT22;45954;49.768;8.636;2022-10-16T08:12:53;18.40;99.90
59651;DHT22;45954;49.768;8.636;2022-10-16T08:15:19;18.30;99.90
59651;DHT22;45954;49.768;8.636;2022-10-16T08:18:01;18.40;99.90
59651;DHT22;45954;49.768;8.636;2022-10-16T08:20:29;18.50;99.90
59651;DHT22;45954;49.768;8.636;2022-10-16T08:22:56;18.60;99.90
59651;DHT22;45954;49.768;8.636;2022-10-16T08:25:24;18.50;99.90
59651;DHT22;45954;49.768;8.636;2022-10-16T08:27:50;18.50;99.90
59651;DHT22;45954;49.768;8.636;2022-10-16T08:30:18;18.30;99.90
59651;DHT22;45954;49.768;8.636;2022-10-16T08:32:45;17.90;99.90
59651;DHT22;45954;49.768;8.636;2022-10-16T08:35:12;17.70;99.90
59651;DHT22;45954;49.768;8.636;2022-10-16T08:37:40;17.80;99.90
59651;DHT22;45954;49.768;8.636;2022-10-16T08:40:24;17.80;99.90
59651;DHT22;45954;49.768;8.636;2022-10-16T08:48:23;17.20;99.90
59651;DHT22;45954;49.768;8.636;2022-10-16T08:50:54;17.10;99.90
59651;DHT22;45954;49.768;8.636;2022-10-16T08:53:40;17.40;99.90
59651;DHT22;45954;49.768;8.636;2022-10-16T08:56:09;17.60;99.90
59651;DHT22;45954;49.768;8.636;2022-10-16T08:58:35;17.70;99.90
59651;DHT22;45954;49.768;8.636;2022-10-16T09:01:04;17.80;99.90
59651;DHT22;45954;49.768;8.636;2022-10-16T09:03:55;17.90;99.90
59651;DHT22;45954;49.768;8.636;2022-10-16T09:16:00;17.80;99.90
59651;DHT22;45954;49.768;8.636;2022-10-16T09:21:26;17.70;99.90
59651;DHT22;45954;49.768;8.636;2022-10-16T09:24:06;17.80;99.90
59651;DHT22;45954;49.768;8.636;2022-10-16T09:26:36;18.10;99.90
59651;DHT22;45954;49.768;8.636;2022-10-16T09:29:03;18.30;99.90
59651;DHT22;45954;49.768;8.636;2022-10-16T09:31:29;18.40;99.90
59651;DHT22;45954;49.768;8.636;2022-10-16T09:34:02;18.40;99.90
59651;DHT22;45954;49.768;8.636;2022-10-16T09:36:42;18.40;99.90
59651;DHT22;45954;49.768;8.636;2022-10-16T09:39:11;18.60;99.90
59651;DHT22;45954;49.768;8.636;2022-10-16T09:41:41;18.60;99.90
59651;DHT22;45954;49.768;8.636;2022-10-16T09:44:24;18.70;99.90
59651;DHT22;45954;49.768;8.636;2022-10-16T09:47:14;18.70;99.90
59651;DHT22;45954;49.768;8.636;2022-10-16T09:49:54;18.80;99.90
59651;DHT22;45954;49.768;8.636;2022-10-16T09:52:24;19.00;99.90
59651;DHT22;45954;49.768;8.636;2022-10-16T09:54:55;19.20;99.90
59651;DHT22;45954;49.768;8.636;2022-10-16T09:57:23;19.30;99.90
59651;DHT22;45954;49.768;8.636;2022-10-16T09:59:52;19.50;99.90
59651;DHT22;45954;49.768;8.636;2022-10-16T10:02:36;19.60;99.90
59651;DHT22;45954;49.768;8.636;2022-10-16T10:05:16;19.50;99.90
59651;DHT22;45954;49.768;8.636;2022-10-16T10:07:45;19.70;99.90
59651;DHT22;45954;49.768;8.636;2022-10-16T10:10:24;19.70;99.90
59651;DHT22;45954;49.768;8.636;2022-10-16T10:12:53;19.60;99.90
59651;DHT22;45954;49.768;8.636;2022-10-16T10:15:21;19.70;99.90
59651;DHT22;45954;49.768;8.636;2022-10-16T10:17:54;19.90;99.90
59651;DHT22;45954;49.768;8.636;2022-10-16T10:20:31;20.20;99.90
59651;DHT22;45954;49.768;8.636;2022-10-16T10:23:01;20.40;99.90
59651;DHT22;45954;49.768;8.636;2022-10-16T10:31:25;20.00;99.90
59651;DHT22;45954;49.768;8.636;2022-10-16T10:46:32;20.50;99.90
59651;DHT22;45954;49.768;8.636;2022-10-16T10:54:59;20.90;99.90
59651;DHT22;45954;49.768;8.636;2022-10-16T11:01:16;20.80;99.90
59651;DHT22;45954;49.768;8.636;2022-10-16T11:07:25;21.00;99.90
59651;DHT22;45954;49.768;8.636;2022-10-16T11:10:03;21.00;99.90
59651;DHT22;45954;49.768;8.636;2022-10-16T11:12:46;20.70;99.90
59651;DHT22;45954;49.768;8.636;2022-10-16T11:15:34;20.60;99.90
59651;DHT22;45954;49.768;8.636;2022-10-16T11:19:18;20.90;99.90
59651;DHT22;45954;49.768;8.636;2022-10-16T11:21:54;21.20;99.90
59651;DHT22;45954;49.768;8.636;2022-10-16T11:24:40;21.20;99.90
59651;DHT22;45954;49.768;8.636;2022-10-16T11:27:17;21.30;99.90
59651;DHT22;45954;49.768;8.636;2022-10-16T11:29:59;21.60;99.90
59651;DHT22;45954;49.768;8.636;2022-10-16T11:33:21;21.80;99.90
59651;DHT22;45954;49.768;8.636;2022-10-16T11:38:58;22.30;99.90
59651;DHT22;45954;49.768;8.636;2022-10-16T11:41:45;22.20;99.90
59651;DHT22;45954;49.768;8.636;2022-10-16T11:47:35;22.00;99.90
59651;DHT22;45954;49.768;8.636;2022-10-16T11:50:25;21.90;99.90
59651;DHT22;45954;49.768;8.636;2022-10-16T11:56:05;21.50;99.90
59651;DHT22;45954;49.768;8.636;2022-10-16T12:01:50;21.50;99.90
59651;DHT22;45954;49.768;8.636;2022-10-16T12:07:24;21.30;99.90
59651;DHT22;45954;49.768;8.636;2022-10-16T12:09:52;21.30;99.90
59651;DHT22;45954;49.768;8.636;2022-10-16T12:12:44;21.70;99.90
59651;DHT22;45954;49.768;8.636;2022-10-16T12:15:26;21.40;99.90
59651;DHT22;45954;49.768;8.636;2022-10-16T12:17:54;21.50;99.90
59651;DHT22;45954;49.768;8.636;2022-10-16T12:20:33;21.20;99.90
59651;DHT22;45954;49.768;8.636;2022-10-16T12:23:06;21.30;99.90
59651;DHT22;45954;49.768;8.636;2022-10-16T12:25:35;21.50;99.90
59651;DHT22;45954;49.768;8.636;2022-10-16T12:28:15;21.40;99.90
59651;DHT22;45954;49.768;8.636;2022-10-16T12:30:54;21.80;99.90
59651;DHT22;45954;49.768;8.636;2022-10-16T12:33:26;21.90;99.90
59651;DHT22;45954;49.768;8.636;2022-10-16T12:35:54;21.80;99.90
59651;DHT22;45954;49.768;8.636;2022-10-16T12:38:26;21.70;99.90
59651;DHT22;45954;49.768;8.636;2022-10-16T12:41:03;21.70;99.90
59651;DHT22;45954;49.768;8.636;2022-10-16T12:43:39;22.00;99.90
59651;DHT22;45954;49.768;8.636;2022-10-16T12:48:37;22.10;99.90
59651;DHT22;45954;49.768;8.636;2022-10-16T12:54:02;22.40;99.90
59651;DHT22;45954;49.768;8.636;2022-10-16T12:59:49;22.10;99.90
59651;DHT22;45954;49.768;8.636;2022-10-16T13:09:02;21.90;99.90
59651;DHT22;45954;49.768;8.636;2022-10-16T13:11:59;21.80;99.90
59651;DHT22;45954;49.768;8.636;2022-10-16T13:20:38;21.90;99.90
59651;DHT22;45954;49.768;8.636;2022-10-16T13:23:33;21.90;99.90
59651;DHT22;45954;49.768;8.636;2022-10-16T13:26:46;22.00;99.90
59651;DHT22;45954;49.768;8.636;2022-10-16T13:29:18;22.10;99.90
59651;DHT22;45954;49.768;8.636;2022-10-16T13:31:45;21.80;99.90
59651;DHT22;45954;49.768;8.636;2022-10-16T13:34:21;21.60;99.90
59651;DHT22;45954;49.768;8.636;2022-10-16T13:36:53;21.70;99.90
59651;DHT22;45954;49.768;8.636;2022-10-16T13:39:30;21.60;99.90
59651;DHT22;45954;49.768;8.636;2022-10-16T13:42:04;21.30;99.90
59651;DHT22;45954;49.768;8.636;2022-10-16T13:44:48;21.30;99.90
59651;DHT22;45954;49.768;8.636;2022-10-16T13:47:21;21.00;99.90
59651;DHT22;45954;49.768;8.636;2022-10-16T13:52:32;21.10;99.90
59651;DHT22;45954;49.768;8.636;2022-10-16T13:55:01;21.10;99.90
59651;DHT22;45954;49.768;8.636;2022-10-16T13:57:27;21.20;99.90
59651;DHT22;45954;49.768;8.636;2022-10-16T13:59:53;21.20;99.90
59651;DHT22;45954;49.768;8.636;2022-10-16T14:02:25;21.20;99.90
59651;DHT22;45954;49.768;8.636;2022-10-16T14:04:54;21.30;99.90
59651;DHT22;45954;49.768;8.636;2022-10-16T14:07:24;21.20;99.90
59651;DHT22;45954;49.768;8.636;2022-10-16T14:09:54;21.00;99.90
59651;DHT22;45954;49.768;8.636;2022-10-16T14:12:22;21.00;99.90
59651;DHT22;45954;49.768;8.636;2022-10-16T14:14:52;21.20;99.90
59651;DHT22;45954;49.768;8.636;2022-10-16T14:17:24;21.30;99.90
59651;DHT22;45954;49.768;8.636;2022-10-16T14:19:55;21.40;99.90
59651;DHT22;45954;49.768;8.636;2022-10-16T14:22:34;21.40;99.90
59651;DHT22;45954;49.768;8.636;2022-10-16T14:25:23;21.50;99.90
59651;DHT22;45954;49.768;8.636;2022-10-16T14:28:03;21.20;99.90
59651;DHT22;45954;49.768;8.636;2022-10-16T14:30:34;21.30;99.90
59651;DHT22;45954;49.768;8.636;2022-10-16T14:33:18;21.40;99.90
59651;DHT22;45954;49.768;8.636;2022-10-16T14:38:36;21.40;99.90
59651;DHT22;45954;49.768;8.636;2022-10-16T14:41:04;21.20;99.90
59651;DHT22;45954;49.768;8.636;2022-10-16T14:43:37;21.20;99.90
59651;DHT22;45954;49.768;8.636;2022-10-16T14:46:19;20.90;99.90
59651;DHT22;45954;49.768;8.636;2022-10-16T14:48:49;20.90;99.90
59651;DHT22;45954;49.768;8.636;2022-10-16T14:51:20;20.70;99.90
59651;DHT22;45954;49.768;8.636;2022-10-16T14:53:46;20.60;99.90
59651;DHT22;45954;49.768;8.636;2022-10-16T14:56:22;20.50;99.90
59651;DHT22;45954;49.768;8.636;2022-10-16T14:58:51;20.50;99.90
59651;DHT22;45954;49.768;8.636;2022-10-16T15:01:17;20.60;99.90
59651;DHT22;45954;49.768;8.636;2022-10-16T15:03:44;20.90;99.90
59651;DHT22;45954;49.768;8.636;2022-10-16T15:06:12;21.10;99.90
59651;DHT22;45954;49.768;8.636;2022-10-16T15:08:39;21.00;99.90
59651;DHT22;45954;49.768;8.636;2022-10-16T15:11:14;21.10;99.90
59651;DHT22;45954;49.768;8.636;2022-10-16T15:13:41;21.20;99.90
59651;DHT22;45954;49.768;8.636;2022-10-16T15:16:16;20.90;99.90
59651;DHT22;45954;49.768;8.636;2022-10-16T15:18:43;21.10;99.90
59651;DHT22;45954;49.768;8.636;2022-10-16T15:21:23;21.30;99.90
59651;DHT22;45954;49.768;8.636;2022-10-16T15:23:51;21.50;99.90
59651;DHT22;45954;49.768;8.636;2022-10-16T15:26:17;21.50;99.90
59651;DHT22;45954;49.768;8.636;2022-10-16T15:28:43;21.50;99.90
59651;DHT22;45954;49.768;8.636;2022-10-16T15:31:09;21.50;99.90
59651;DHT22;45954;49.768;8.636;2022-10-16T15:33:35;21.50;99.90
59651;DHT22;45954;49.768;8.636;2022-10-16T15:36:02;21.60;99.90
59651;DHT22;45954;49.768;8.636;2022-10-16T15:38:29;21.60;99.90
59651;DHT22;45954;49.768;8.636;2022-10-16T15:40:56;21.60;99.90
59651;DHT22;45954;49.768;8.636;2022-10-16T15:43:22;21.50;99.90
59651;DHT22;45954;49.768;8.636;2022-10-16T15:46:03;21.20;99.90
59651;DHT22;45954;49.768;8.636;2022-10-16T15:48:32;21.30;99.90
59651;DHT22;45954;49.768;8.636;2022-10-16T15:51:00;21.40;99.90
59651;DHT22;45954;49.768;8.636;2022-10-16T15:53:26;21.40;99.90
59651;DHT22;45954;49.768;8.636;2022-10-16T15:55:52;21.30;99.90
59651;DHT22;45954;49.768;8.636;2022-10-16T15:58:17;21.30;99.90
59651;DHT22;45954;49.768;8.636;2022-10-16T16:00:43;21.30;99.90
59651;DHT22;45954;49.768;8.636;2022-10-16T16:03:09;21.20;99.90
59651;DHT22;45954;49.768;8.636;2022-10-16T16:05:38;20.90;99.90
59651;DHT22;45954;49.768;8.636;2022-10-16T16:08:05;20.70;99.90
59651;DHT22;45954;49.768;8.636;2022-10-16T16:10:31;20.40;99.90
59651;DHT22;45954;49.768;8.636;2022-10-16T16:12:56;20.40;99.90
59651;DHT22;45954;49.768;8.636;2022-10-16T16:15:22;20.50;99.90
59651;DHT22;45954;49.768;8.636;2022-10-16T16:17:49;20.60;99.90
59651;DHT22;45954;49.768;8.636;2022-10-16T16:20:15;20.70;99.90
59651;DHT22;45954;49.768;8.636;2022-10-16T16:22:42;20.60;99.90
59651;DHT22;45954;49.768;8.636;2022-10-16T16:25:08;20.70;99.90
59651;DHT22;45954;49.768;8.636;2022-10-16T16:27:34;20.60;99.90
59651;DHT22;45954;49.768;8.636;2022-10-16T16:30:01;20.60;99.90
59651;DHT22;45954;49.768;8.636;2022-10-16T16:32:29;20.60;99.90
59651;DHT22;45954;49.768;8.636;2022-10-16T16:34:55;20.70;99.90
59651;DHT22;45954;49.768;8.636;2022-10-16T16:37:21;20.50;99.90
59651;DHT22;45954;49.768;8.636;2022-10-16T16:39:47;20.40;99.90
59651;DHT22;45954;49.768;8.636;2022-10-16T16:42:13;20.40;99.90
59651;DHT22;45954;49.768;8.636;2022-10-16T16:44:38;20.40;99.90
59651;DHT22;45954;49.768;8.636;2022-10-16T16:47:05;20.30;99.90
59651;DHT22;45954;49.768;8.636;2022-10-16T16:49:31;20.30;99.90
59651;DHT22;45954;49.768;8.636;2022-10-16T16:52:00;20.10;99.90
59651;DHT22;45954;49.768;8.636;2022-10-16T16:54:26;20.10;99.90
59651;DHT22;45954;49.768;8.636;2022-10-16T16:56:52;20.00;99.90
59651;DHT22;45954;49.768;8.636;2022-10-16T16:59:20;19.90;99.90
59651;DHT22;45954;49.768;8.636;2022-10-16T17:01:48;19.90;99.90
59651;DHT22;45954;49.768;8.636;2022-10-16T17:04:14;19.90;99.90
59651;DHT22;45954;49.768;8.636;2022-10-16T17:06:44;19.80;99.90
59651;DHT22;45954;49.768;8.636;2022-10-16T17:09:10;19.60;99.90
59651;DHT22;45954;49.768;8.636;2022-10-16T17:11:41;19.60;99.90
59651;DHT22;45954;49.768;8.636;2022-10-16T17:14:08;19.60;99.90
59651;DHT22;45954;49.768;8.636;2022-10-16T17:16:37;19.30;99.90
59651;DHT22;45954;49.768;8.636;2022-10-16T17:19:07;19.30;99.90
59651;DHT22;45954;49.768;8.636;2022-10-16T17:21:34;19.30;99.90
59651;DHT22;45954;49.768;8.636;2022-10-16T17:24:01;19.20;99.90
59651;DHT22;45954;49.768;8.636;2022-10-16T17:26:27;19.00;99.90
59651;DHT22;45954;49.768;8.636;2022-10-16T17:28:56;18.90;99.90
59651;DHT22;45954;49.768;8.636;2022-10-16T17:31:31;18.90;99.90
59651;DHT22;45954;49.768;8.636;2022-10-16T17:34:00;18.80;99.90
59651;DHT22;45954;49.768;8.636;2022-10-16T17:36:28;18.80;99.90
59651;DHT22;45954;49.768;8.636;2022-10-16T17:39:05;18.80;99.90
59651;DHT22;45954;49.768;8.636;2022-10-16T17:41:33;18.80;99.90
59651;DHT22;45954;49.768;8.636;2022-10-16T17:44:00;18.90;99.90
59651;DHT22;45954;49.768;8.636;2022-10-16T17:46:26;18.90;99.90